Time;durP1;ratioP1;P1;durP2;ratioP2;P2;SDS_P1;SDS_P2;PMS_P1;PMS_P2;Temp;Humidity;BMP_temperature;BMP_pressure;BME280_temperature;BME280_humidity;BME280_pressure;Samples;Min_cycle;Max_cycle;Signal;HPM_P1;HPM_P2
2023/08/14 00:03:33;;;;;;;9.52;4.35;;;16.90;31.20;;;;;;20648281;28;20063;-43
2023/08/14 00:13:49;;;;;;;7.68;4.07;;;16.90;27.50;;;;;;20670602;28;20050;-43
2023/08/14 00:23:50;;;;;;;7.93;4.05;;;16.80;33.30;;;;;;20661567;28;20046;-43
2023/08/14 00:33:52;;;;;;;11.48;5.00;;;16.80;32.50;;;;;;20625028;28;1178651;-43
2023/08/14 00:43:52;;;;;;;9.70;5.80;;;16.80;32.40;;;;;;20677512;28;20041;-42
2023/08/14 00:53:54;;;;;;;7.87;4.30;;;16.80;42.90;;;;;;20660952;28;20033;-43
2023/08/14 01:03:55;;;;;;;8.07;4.90;;;16.80;46.60;;;;;;20660286;28;21026;-43
2023/08/14 01:14:17;;;;;;;11.30;4.85;;;16.80;47.40;;;;;;20659124;28;20619;-43
2023/08/14 01:24:28;;;;;;;7.85;4.15;;;16.90;45.90;;;;;;20678806;28;20049;-43
2023/08/14 01:34:29;;;;;;;6.28;4.10;;;16.80;52.40;;;;;;20662513;28;20164;-43
2023/08/14 01:44:32;;;;;;;9.87;3.93;;;16.70;62.00;;;;;;20647155;28;20562;-43
2023/08/14 01:54:33;;;;;;;9.88;4.22;;;16.70;70.60;;;;;;20663699;28;20050;-43
2023/08/14 02:04:33;;;;;;;14.68;6.25;;;16.60;74.50;;;;;;20665256;28;20084;-43
2023/08/14 02:14:34;;;;;;;11.35;5.60;;;16.50;89.70;;;;;;20655679;28;20059;-42
2023/08/14 02:24:34;;;;;;;9.30;5.22;;;16.40;90.20;;;;;;20668216;28;20197;-43
2023/08/14 02:34:46;;;;;;;12.30;5.13;;;16.40;90.80;;;;;;20671447;28;20058;-43
2023/08/14 02:44:47;;;;;;;8.57;4.47;;;16.40;93.70;;;;;;20665351;28;20041;-43
2023/08/14 02:54:48;;;;;;;8.00;4.72;;;16.30;97.10;;;;;;20655822;28;20561;-43
2023/08/14 03:04:49;;;;;;;6.60;3.72;;;16.30;84.80;;;;;;20662297;28;21271;-43
2023/08/14 03:14:50;;;;;;;6.95;3.90;;;16.20;85.20;;;;;;20669389;28;20048;-43
2023/08/14 03:24:50;;;;;;;7.25;3.70;;;16.20;79.80;;;;;;20678082;28;20521;-43
2023/08/14 03:34:51;;;;;;;6.03;3.40;;;16.10;70.70;;;;;;20666587;28;20218;-43
2023/08/14 03:44:52;;;;;;;9.03;3.70;;;16.00;79.00;;;;;;20680583;28;20489;-43
2023/08/14 03:54:52;;;;;;;5.68;3.75;;;15.90;79.60;;;;;;20671358;28;20761;-43
2023/08/14 04:04:53;;;;;;;6.35;3.42;;;15.80;85.30;;;;;;20654382;28;20140;-43
2023/08/14 04:14:53;;;;;;;9.82;4.00;;;15.70;94.30;;;;;;20667094;28;20045;-43
2023/08/14 04:24:54;;;;;;;6.78;3.25;;;15.70;97.90;;;;;;20653626;28;20052;-43
2023/08/14 04:34:54;;;;;;;7.20;4.03;;;15.80;96.40;;;;;;20672236;28;20046;-44
2023/08/14 04:44:55;;;;;;;6.50;3.72;;;15.80;91.60;;;;;;20680285;28;20046;-42
2023/08/14 04:54:55;;;;;;;7.38;3.50;;;15.90;83.60;;;;;;20673082;28;20499;-43
2023/08/14 05:04:56;;;;;;;9.20;5.13;;;16.00;58.70;;;;;;20667757;28;20136;-43
2023/08/14 05:14:56;;;;;;;7.65;4.05;;;16.20;51.00;;;;;;20672026;28;20046;-43
2023/08/14 05:24:57;;;;;;;8.50;4.93;;;16.30;29.10;;;;;;20669784;28;20501;-43
2023/08/14 05:34:58;;;;;;;10.40;4.80;;;16.40;29.30;;;;;;20669081;28;20149;-44
2023/08/14 05:44:58;;;;;;;7.97;4.77;;;16.50;36.50;;;;;;20673543;28;20069;-44
2023/08/14 05:54:59;;;;;;;8.43;5.43;;;16.50;36.30;;;;;;20669081;28;20191;-43
2023/08/14 06:04:59;;;;;;;8.48;4.78;;;16.60;23.80;;;;;;20663117;28;20077;-43
2023/08/14 06:15:00;;;;;;;11.95;6.40;;;16.80;12.00;;;;;;20681401;28;20038;-43
2023/08/14 06:25:00;;;;;;;12.90;6.85;;;17.10;8.00;;;;;;20687464;28;20072;-43
2023/08/14 06:35:02;;;;;;;11.07;5.47;;;17.40;1.00;;;;;;20687381;28;20615;-43
2023/08/14 06:45:04;;;;;;;7.35;4.93;;;17.60;1.00;;;;;;20674667;28;20420;-43
2023/08/14 06:55:05;;;;;;;8.57;5.05;;;17.90;1.00;;;;;;20678427;28;20402;-43
2023/08/14 07:05:06;;;;;;;8.48;5.50;;;18.20;1.00;;;;;;20658202;28;20042;-43
2023/08/14 07:15:09;;;;;;;5.95;3.83;;;18.50;1.00;;;;;;20668762;28;20462;-43
2023/08/14 07:25:11;;;;;;;6.53;4.10;;;18.50;1.00;;;;;;20682794;28;20049;-42
2023/08/14 07:35:12;;;;;;;5.57;3.00;;;18.90;1.00;;;;;;20696223;28;20473;-41
2023/08/14 07:45:12;;;;;;;4.50;2.47;;;19.30;1.00;;;;;;20677343;28;20045;-41
2023/08/14 07:55:13;;;;;;;5.57;1.90;;;19.70;1.00;;;;;;20672675;28;20044;-42
2023/08/14 08:05:15;;;;;;;2.90;1.30;;;20.00;1.00;;;;;;20676034;28;20050;-41
2023/08/14 08:15:15;;;;;;;6.22;1.20;;;20.10;1.00;;;;;;20696313;28;20041;-42
2023/08/14 08:25:17;;;;;;;3.30;1.55;;;20.50;1.00;;;;;;20711463;28;20116;-41
2023/08/14 08:35:17;;;;;;;5.53;2.33;;;20.90;1.00;;;;;;20666827;28;20053;-41
2023/08/14 08:45:19;;;;;;;6.22;2.25;;;21.50;1.00;;;;;;20657738;28;20129;-42
2023/08/14 08:55:20;;;;;;;6.05;2.38;;;21.90;1.00;;;;;;20668168;28;20049;-41
2023/08/14 09:05:21;;;;;;;7.70;2.75;;;22.30;1.00;;;;;;20660846;28;20046;-42
2023/08/14 09:15:25;;;;;;;7.30;2.80;;;22.70;1.00;;;;;;20674804;28;20049;-42
2023/08/14 09:25:26;;;;;;;6.90;3.00;;;23.10;1.00;;;;;;20672736;28;21161;-42
2023/08/14 09:35:27;;;;;;;4.50;1.98;;;23.50;1.00;;;;;;20679186;28;20046;-42
2023/08/14 09:45:28;;;;;;;6.38;2.30;;;23.80;1.00;;;;;;20680660;28;20061;-41
2023/08/14 09:55:29;;;;;;;5.40;1.90;;;24.20;1.00;;;;;;20682701;28;20153;-42
2023/08/14 10:05:30;;;;;;;6.20;2.15;;;25.00;1.00;;;;;;20685453;28;20037;-42
2023/08/14 10:15:55;;;;;;;3.65;1.40;;;25.20;1.00;;;;;;20699120;28;20656;-42
2023/08/14 10:25:56;;;;;;;5.97;1.77;;;25.70;1.00;;;;;;20681204;28;20045;-42
2023/08/14 10:36:00;;;;;;;3.70;1.50;;;25.10;1.00;;;;;;20701877;28;20285;-42
2023/08/14 10:46:13;;;;;;;4.25;1.60;;;25.40;1.00;;;;;;20705735;28;20128;-42
2023/08/14 10:56:13;;;;;;;4.53;1.45;;;25.40;1.00;;;;;;20678262;28;20045;-42
2023/08/14 11:06:28;;;;;;;5.40;1.40;;;25.40;1.00;;;;;;20707825;28;20048;-42
2023/08/14 11:16:28;;;;;;;6.35;1.80;;;25.80;1.00;;;;;;20694717;28;20521;-42
2023/08/14 11:26:30;;;;;;;3.67;1.60;;;26.00;1.00;;;;;;20708232;28;20425;-42
2023/08/14 11:36:30;;;;;;;7.70;1.50;;;25.70;1.00;;;;;;20695924;28;20480;-42
2023/08/14 11:46:32;;;;;;;5.55;1.50;;;25.60;1.00;;;;;;20708827;28;20972;-41
2023/08/14 11:56:33;;;;;;;2.80;1.10;;;25.90;1.00;;;;;;20719581;28;20043;-42
2023/08/14 12:06:34;;;;;;;5.35;1.20;;;25.90;1.00;;;;;;20636733;28;20096;-42
2023/08/14 12:16:39;;;;;;;4.43;1.48;;;26.30;1.00;;;;;;20698225;28;20568;-42
2023/08/14 12:26:44;;;;;;;4.53;1.95;;;26.90;1.00;;;;;;20704659;28;20068;-42
2023/08/14 12:36:45;;;;;;;3.22;1.27;;;26.90;1.00;;;;;;20739066;28;20112;-42
2023/08/14 12:46:45;;;;;;;4.22;1.35;;;27.20;1.00;;;;;;20702313;28;20481;-42
2023/08/14 12:56:46;;;;;;;6.15;1.60;;;27.00;1.00;;;;;;20684082;28;20041;-42
2023/08/14 13:06:47;;;;;;;4.22;1.35;;;26.90;1.00;;;;;;20678394;28;20040;-42
2023/08/14 13:16:48;;;;;;;4.47;1.23;;;27.40;1.00;;;;;;20689946;28;20045;-43
2023/08/14 13:26:48;;;;;;;3.80;1.45;;;27.10;1.00;;;;;;20693027;28;20053;-42
2023/08/14 13:36:49;;;;;;;4.90;1.50;;;27.30;1.00;;;;;;20676741;28;20076;-42
2023/08/14 13:46:49;;;;;;;3.63;1.20;;;27.80;1.00;;;;;;20677781;28;20473;-42
2023/08/14 13:56:50;;;;;;;2.63;1.27;;;28.10;1.00;;;;;;20684765;28;20073;-42
2023/08/14 14:06:51;;;;;;;8.48;1.52;;;27.50;1.00;;;;;;20678869;28;20057;-42
2023/08/14 14:16:55;;;;;;;6.88;1.75;;;27.50;1.00;;;;;;20668409;28;20049;-42
2023/08/14 14:26:55;;;;;;;5.30;1.33;;;27.60;1.00;;;;;;20709523;28;20046;-42
2023/08/14 14:36:56;;;;;;;2.97;1.10;;;27.60;1.00;;;;;;20690432;28;20153;-42
2023/08/14 14:46:56;;;;;;;3.13;1.50;;;27.10;1.00;;;;;;20726192;28;20033;-42
2023/08/14 14:56:57;;;;;;;2.78;1.17;;;26.50;1.00;;;;;;20670456;28;20501;-42
2023/08/14 15:06:57;;;;;;;6.97;1.58;;;26.80;1.00;;;;;;20689205;28;20049;-42
2023/08/14 15:16:59;;;;;;;4.18;1.58;;;27.00;1.00;;;;;;20690628;28;20501;-42
2023/08/14 15:26:59;;;;;;;3.35;1.20;;;27.10;1.00;;;;;;20688593;28;20080;-42
2023/08/14 15:37:00;;;;;;;5.03;1.60;;;26.90;1.00;;;;;;20660421;28;20421;-42
2023/08/14 15:47:00;;;;;;;7.82;1.40;;;26.70;1.00;;;;;;20683278;28;20046;-42
2023/08/14 15:57:01;;;;;;;2.88;1.10;;;26.50;1.00;;;;;;20740649;28;20038;-42
2023/08/14 16:07:01;;;;;;;4.65;1.20;;;26.30;1.00;;;;;;20729474;28;20057;-42
2023/08/14 16:17:02;;;;;;;4.03;1.65;;;26.10;1.00;;;;;;20662923;28;20529;-42
2023/08/14 16:27:03;;;;;;;4.50;1.70;;;26.00;1.00;;;;;;20656863;28;20042;-42
2023/08/14 16:37:04;;;;;;;3.55;1.20;;;26.00;1.00;;;;;;20635858;28;20072;-42
2023/08/14 16:47:04;;;;;;;4.25;1.10;;;25.90;1.00;;;;;;20666308;28;20045;-42
2023/08/14 16:57:06;;;;;;;4.40;1.50;;;25.80;1.00;;;;;;20666634;28;20044;-42
2023/08/14 17:18:31;;;;;;;3.45;1.38;;;25.50;1.00;;;;;;20609483;28;20046;-42
2023/08/14 17:28:31;;;;;;;3.53;1.27;;;25.30;1.00;;;;;;20663490;28;20053;-42
2023/08/14 17:38:33;;;;;;;5.07;1.63;;;25.20;1.00;;;;;;20650251;28;20545;-42
2023/08/14 17:48:33;;;;;;;7.35;2.00;;;25.00;1.00;;;;;;20649712;28;20240;-42
2023/08/14 17:58:34;;;;;;;5.25;2.10;;;24.90;1.00;;;;;;20639510;28;20053;-42
2023/08/14 18:08:35;;;;;;;3.50;1.33;;;24.60;1.00;;;;;;20630591;28;20435;-42
2023/08/14 18:18:35;;;;;;;5.40;2.80;;;24.20;1.00;;;;;;20675031;28;20084;-42
2023/08/14 18:28:36;;;;;;;8.98;5.78;;;23.70;1.00;;;;;;20689362;28;20048;-42
2023/08/14 18:38:36;;;;;;;11.23;5.90;;;23.30;1.00;;;;;;20676518;28;20068;-42
2023/08/14 18:48:37;;;;;;;3.88;1.70;;;22.90;1.00;;;;;;20691249;28;20050;-42
2023/08/14 18:58:37;;;;;;;3.30;1.60;;;22.60;1.00;;;;;;20689098;28;20485;-42
2023/08/14 19:08:38;;;;;;;3.83;1.60;;;22.30;1.00;;;;;;20692106;28;20045;-42
2023/08/14 19:18:39;;;;;;;4.45;2.10;;;22.00;1.00;;;;;;20683518;28;20053;-42
2023/08/14 19:28:39;;;;;;;5.05;2.33;;;21.80;1.00;;;;;;20663729;28;20121;-42
2023/08/14 19:38:40;;;;;;;5.15;1.95;;;21.50;1.00;;;;;;20674294;28;20097;-42
2023/08/14 19:48:40;;;;;;;6.60;2.97;;;21.30;1.00;;;;;;20662369;28;20108;-42
2023/08/14 19:58:41;;;;;;;6.28;2.72;;;21.10;1.00;;;;;;20661272;28;20501;-42
2023/08/14 20:08:41;;;;;;;4.28;2.45;;;20.90;1.00;;;;;;20658848;28;20045;-42
2023/08/14 20:18:42;;;;;;;5.75;2.90;;;20.70;1.00;;;;;;20662470;28;20113;-41
2023/08/14 20:28:43;;;;;;;6.55;2.72;;;20.60;1.00;;;;;;20657797;28;20046;-42
2023/08/14 20:38:43;;;;;;;3.75;2.20;;;20.50;1.00;;;;;;20686296;28;20123;-42
2023/08/14 20:48:44;;;;;;;4.50;2.45;;;20.40;1.00;;;;;;20710497;28;20084;-41
2023/08/14 20:58:44;;;;;;;5.35;2.70;;;20.30;1.00;;;;;;20709930;28;20045;-41
2023/08/14 21:08:45;;;;;;;6.90;2.53;;;20.20;1.00;;;;;;20699486;28;20057;-42
2023/08/14 21:18:45;;;;;;;5.85;2.80;;;20.10;1.00;;;;;;20691714;28;20758;-42
2023/08/14 21:28:46;;;;;;;7.35;2.45;;;20.10;1.00;;;;;;20675251;28;20054;-41
2023/08/14 21:38:46;;;;;;;4.78;2.35;;;20.00;1.00;;;;;;20687911;28;20373;-42
2023/08/14 21:48:47;;;;;;;4.93;2.55;;;19.90;1.00;;;;;;20670170;28;20076;-41
2023/08/14 21:58:47;;;;;;;4.78;3.00;;;19.80;1.00;;;;;;20663750;28;20092;-42
2023/08/14 22:08:48;;;;;;;6.15;2.75;;;19.80;1.00;;;;;;20667616;28;20045;-42
2023/08/14 22:18:49;;;;;;;5.75;2.65;;;19.80;1.00;;;;;;20664294;28;20045;-42
2023/08/14 22:28:49;;;;;;;6.45;2.65;;;19.80;1.00;;;;;;20668133;28;20064;-41
2023/08/14 22:38:50;;;;;;;6.05;3.10;;;20.20;1.00;;;;;;20672705;28;20124;-42
2023/08/14 22:48:50;;;;;;;6.72;2.70;;;20.30;1.00;;;;;;20680796;28;20045;-41
2023/08/14 22:58:51;;;;;;;5.78;2.10;;;20.30;1.00;;;;;;20676785;28;20083;-42
2023/08/14 23:08:51;;;;;;;5.60;1.80;;;20.20;1.00;;;;;;20678956;28;21801;-41
2023/08/14 23:18:52;;;;;;;6.03;2.00;;;20.20;1.00;;;;;;20677215;28;20272;-42
2023/08/14 23:28:52;;;;;;;7.63;2.67;;;20.10;1.00;;;;;;20682803;28;20060;-42
2023/08/14 23:38:53;;;;;;;4.65;1.67;;;19.80;1.00;;;;;;20676728;28;20061;-42
2023/08/14 23:48:54;;;;;;;5.00;1.80;;;19.60;1.00;;;;;;20682556;28;20124;-41
2023/08/14 23:58:54;;;;;;;6.25;1.85;;;19.30;1.00;;;;;;20674316;28;20394;-42
